Time;durP1;ratioP1;P1;durP2;ratioP2;P2;SDS_P1;SDS_P2;PMS_P1;PMS_P2;Temp;Humidity;BMP_temperature;BMP_pressure;BME280_temperature;BME280_humidity;BME280_pressure;Samples;Min_cycle;Max_cycle;Signal;HPM_P1;HPM_P2
2022/10/04 00:02:21;;;;;;;5.28;1.30;;;13.20;99.90;;;;;;6117968;23;20029;-84
2022/10/04 00:04:56;;;;;;;4.72;1.20;;;13.20;99.90;;;;;;6112560;23;20002;-84
2022/10/04 00:07:36;;;;;;;11.35;1.55;;;13.20;99.90;;;;;;6118517;23;20034;-83
2022/10/04 00:10:19;;;;;;;8.23;1.77;;;13.10;99.90;;;;;;6117264;23;20085;-84
2022/10/04 00:12:57;;;;;;;11.55;1.80;;;13.10;99.90;;;;;;6117881;23;20010;-84
2022/10/04 00:15:34;;;;;;;5.43;1.15;;;13.20;99.90;;;;;;6117208;23;20021;-84
2022/10/04 00:18:21;;;;;;;8.13;1.80;;;13.20;99.90;;;;;;6117898;22;20359;-84
2022/10/04 00:20:50;;;;;;;7.55;1.65;;;13.20;99.90;;;;;;6117170;23;20431;-84
2022/10/04 00:23:22;;;;;;;9.77;1.67;;;13.20;99.90;;;;;;6118071;23;20002;-84
2022/10/04 00:25:47;;;;;;;6.30;1.10;;;13.20;99.90;;;;;;6117668;23;20218;-85
2022/10/04 00:28:38;;;;;;;7.65;1.48;;;13.10;99.90;;;;;;6118527;23;20010;-84
2022/10/04 00:31:19;;;;;;;10.27;1.33;;;13.10;99.90;;;;;;6105355;23;20009;-84
2022/10/04 00:33:48;;;;;;;7.07;1.63;;;13.10;99.90;;;;;;6118105;23;20002;-84
2022/10/04 00:36:23;;;;;;;15.07;1.77;;;13.20;99.90;;;;;;6116440;23;20002;-84
2022/10/04 00:39:04;;;;;;;5.87;1.20;;;13.10;99.90;;;;;;6118765;23;20012;-84
2022/10/04 00:41:48;;;;;;;7.78;1.65;;;13.10;99.90;;;;;;6117120;23;20009;-85
2022/10/04 00:44:28;;;;;;;7.15;1.27;;;13.10;99.90;;;;;;6118115;23;20089;-85
2022/10/04 00:46:56;;;;;;;9.40;1.73;;;13.00;99.90;;;;;;6116911;23;20439;-84
2022/10/04 00:49:26;;;;;;;15.48;2.28;;;12.90;99.90;;;;;;6118025;23;20080;-84
2022/10/04 00:51:59;;;;;;;10.45;1.70;;;13.00;99.90;;;;;;6117120;23;20014;-84
2022/10/04 00:54:35;;;;;;;6.75;1.10;;;13.00;99.90;;;;;;6117860;23;20081;-84
2022/10/04 00:57:03;;;;;;;;;;;12.90;99.90;;;;;;6118029;23;20007;-84
2022/10/04 00:59:35;;;;;;;5.63;1.25;;;12.80;99.90;;;;;;6117984;23;19912;-85
2022/10/04 01:02:19;;;;;;;6.82;1.25;;;12.80;99.90;;;;;;6117092;23;20009;-85
2022/10/04 01:04:56;;;;;;;8.63;1.25;;;12.70;99.90;;;;;;6116948;23;20010;-85
2022/10/04 01:07:29;;;;;;;7.25;1.58;;;12.60;99.90;;;;;;6118135;23;20021;-84
2022/10/04 01:10:06;;;;;;;10.85;2.28;;;12.60;99.90;;;;;;6116960;23;20010;-85
2022/10/04 01:12:40;;;;;;;15.73;2.67;;;12.50;99.90;;;;;;6118072;23;20002;-84
2022/10/04 01:15:24;;;;;;;8.25;1.58;;;12.50;99.90;;;;;;6116897;23;20045;-84
2022/10/04 01:18:14;;;;;;;12.27;1.83;;;12.40;99.90;;;;;;6118574;23;20006;-85
2022/10/04 01:20:56;;;;;;;10.63;1.60;;;12.40;99.90;;;;;;6116883;23;20313;-84
2022/10/04 01:23:45;;;;;;;11.77;1.98;;;12.40;99.90;;;;;;6117716;23;20018;-83
2022/10/04 01:26:29;;;;;;;10.05;1.98;;;12.40;99.90;;;;;;6116979;23;20438;-84
2022/10/04 01:29:14;;;;;;;5.55;1.63;;;12.40;99.90;;;;;;6117852;23;20013;-84
2022/10/04 01:31:45;;;;;;;16.35;1.83;;;12.40;99.90;;;;;;6116824;23;20002;-84
2022/10/04 01:34:17;;;;;;;9.85;1.55;;;12.40;99.90;;;;;;6117673;23;20012;-84
2022/10/04 01:36:45;;;;;;;18.15;2.40;;;12.40;99.90;;;;;;6116924;23;20010;-84
2022/10/04 01:39:12;;;;;;;12.90;1.90;;;12.40;99.90;;;;;;6117485;23;20026;-85
2022/10/04 01:41:53;;;;;;;11.88;1.55;;;12.40;99.90;;;;;;6116657;23;20009;-84
2022/10/04 01:44:31;;;;;;;8.43;1.63;;;12.40;99.90;;;;;;6117853;23;20006;-84
2022/10/04 01:47:01;;;;;;;18.20;1.73;;;12.40;99.90;;;;;;6116377;23;20042;-85
2022/10/04 01:49:31;;;;;;;6.57;1.42;;;12.50;99.90;;;;;;6119037;23;20002;-84
2022/10/04 01:52:06;;;;;;;13.02;2.63;;;12.50;99.90;;;;;;6118381;23;20009;-85
2022/10/04 01:54:49;;;;;;;9.00;1.88;;;12.50;99.90;;;;;;6119472;23;20089;-84
2022/10/04 01:57:22;;;;;;;11.27;1.90;;;12.50;99.90;;;;;;6118157;23;20006;-84
2022/10/04 01:59:50;;;;;;;8.52;1.35;;;12.50;99.90;;;;;;6119187;23;20276;-84
2022/10/04 02:02:23;;;;;;;10.27;1.70;;;12.40;99.90;;;;;;6116788;23;20006;-84
2022/10/04 02:04:54;;;;;;;15.57;2.25;;;12.40;99.90;;;;;;6118926;23;20301;-85
2022/10/04 02:07:21;;;;;;;11.05;1.92;;;12.50;99.90;;;;;;6119357;23;20025;-84
2022/10/04 02:09:54;;;;;;;10.35;2.03;;;12.40;99.90;;;;;;6119029;23;20006;-84
2022/10/04 02:12:20;;;;;;;13.57;2.22;;;12.40;99.90;;;;;;6117854;23;20073;-85
2022/10/04 02:14:51;;;;;;;9.57;1.35;;;12.30;99.90;;;;;;6117952;23;20018;-84
2022/10/04 02:17:21;;;;;;;7.18;1.55;;;12.30;99.90;;;;;;6117333;23;20474;-85
2022/10/04 02:19:47;;;;;;;10.15;2.05;;;12.30;99.90;;;;;;6118949;22;20541;-84
2022/10/04 02:22:15;;;;;;;19.00;2.15;;;12.40;99.90;;;;;;6117289;23;20097;-84
2022/10/04 02:24:45;;;;;;;11.43;1.70;;;12.30;99.90;;;;;;6116616;23;20009;-84
2022/10/04 02:27:12;;;;;;;10.98;1.85;;;12.30;99.90;;;;;;6117440;23;20097;-85
2022/10/04 02:29:37;;;;;;;16.98;2.05;;;12.40;99.90;;;;;;6117331;23;20005;-84
2022/10/04 02:35:02;;;;;;;22.75;4.78;;;12.30;99.90;;;;;;6116577;23;20465;-84
2022/10/04 02:37:29;;;;;;;10.57;1.45;;;12.30;99.90;;;;;;6118726;23;20052;-85
2022/10/04 02:40:07;;;;;;;4.50;1.10;;;12.30;99.90;;;;;;6118672;23;20006;-85
2022/10/04 02:42:39;;;;;;;9.93;2.05;;;12.20;99.90;;;;;;6116699;23;20002;-84
2022/10/04 02:45:19;;;;;;;15.32;2.10;;;12.20;99.90;;;;;;6117654;23;20308;-84
2022/10/04 02:47:55;;;;;;;12.55;1.83;;;12.20;99.90;;;;;;6118118;23;20010;-84
2022/10/04 02:50:35;;;;;;;9.93;2.00;;;12.20;99.90;;;;;;6117317;23;20056;-84
2022/10/04 02:53:42;;;;;;;9.70;1.42;;;12.30;99.90;;;;;;6118022;23;20008;-84
2022/10/04 02:56:12;;;;;;;8.40;1.77;;;12.20;99.90;;;;;;6116518;23;20002;-84
2022/10/04 02:58:39;;;;;;;9.65;1.60;;;12.20;99.90;;;;;;6117131;23;20002;-85
2022/10/04 03:01:23;;;;;;;9.00;1.55;;;12.10;99.90;;;;;;6115477;23;20005;-84
2022/10/04 03:03:48;;;;;;;10.13;1.58;;;12.10;99.90;;;;;;6118558;23;20010;-85
2022/10/04 03:06:18;;;;;;;9.02;1.67;;;12.10;99.90;;;;;;6117419;23;20438;-84
2022/10/04 03:08:54;;;;;;;12.70;2.28;;;12.00;99.90;;;;;;6118659;23;20029;-85
2022/10/04 03:11:23;;;;;;;8.07;1.30;;;11.90;99.90;;;;;;6117887;23;20034;-85
2022/10/04 03:13:52;;;;;;;3.30;1.00;;;11.90;99.90;;;;;;6118774;23;20002;-85
2022/10/04 03:16:19;;;;;;;5.93;1.00;;;11.80;99.90;;;;;;6118006;23;20076;-85
2022/10/04 03:18:46;;;;;;;11.10;1.98;;;11.80;99.90;;;;;;6118809;23;20018;-85
2022/10/04 03:21:14;;;;;;;11.63;1.60;;;11.80;99.90;;;;;;6117656;23;20406;-85
2022/10/04 03:23:42;;;;;;;5.80;1.17;;;11.80;99.90;;;;;;6118674;23;20005;-85
2022/10/04 03:26:20;;;;;;;11.02;2.13;;;11.80;99.90;;;;;;6117965;23;20060;-85
2022/10/04 03:28:46;;;;;;;6.15;1.42;;;11.80;99.90;;;;;;6118563;23;20006;-84
2022/10/04 03:31:32;;;;;;;4.75;1.83;;;11.80;99.90;;;;;;6116474;23;20440;-84
2022/10/04 03:33:58;;;;;;;5.75;1.52;;;11.80;99.90;;;;;;6118079;23;20089;-84
2022/10/04 03:36:36;;;;;;;5.68;1.52;;;11.80;99.90;;;;;;6118891;23;20004;-84
2022/10/04 03:39:08;;;;;;;4.28;1.10;;;11.70;99.90;;;;;;6115849;23;20010;-85
2022/10/04 03:41:41;;;;;;;5.82;1.05;;;11.70;99.90;;;;;;6114776;23;20006;-85
2022/10/04 03:44:14;;;;;;;5.13;1.20;;;11.70;99.90;;;;;;6116486;23;20419;-85
2022/10/04 03:46:41;;;;;;;4.43;1.38;;;11.60;99.90;;;;;;6114685;23;20017;-85
2022/10/04 03:49:07;;;;;;;9.85;1.85;;;11.60;99.90;;;;;;6117599;23;20025;-84
2022/10/04 03:51:33;;;;;;;11.05;1.48;;;11.60;99.90;;;;;;6115769;23;20037;-85
2022/10/04 03:54:01;;;;;;;10.38;2.20;;;11.60;99.90;;;;;;6116404;23;20004;-84
2022/10/04 03:56:32;;;;;;;6.85;1.27;;;11.60;99.90;;;;;;6115386;23;20017;-84
2022/10/04 03:59:08;;;;;;;6.22;1.45;;;11.50;99.90;;;;;;6117353;23;20048;-84
2022/10/04 04:01:36;;;;;;;6.80;1.90;;;11.50;99.90;;;;;;6117007;23;20090;-84
2022/10/04 04:04:23;;;;;;;8.98;1.65;;;11.50;99.90;;;;;;6115350;23;20002;-83
2022/10/04 04:06:58;;;;;;;6.18;1.27;;;11.50;99.90;;;;;;6113577;23;20014;-84
2022/10/04 04:09:38;;;;;;;11.68;1.75;;;11.40;99.90;;;;;;6116769;23;20059;-84
2022/10/04 04:12:12;;;;;;;8.00;1.63;;;11.40;99.90;;;;;;6116323;23;20002;-84
2022/10/04 04:14:40;;;;;;;10.02;1.75;;;11.40;99.90;;;;;;6116898;23;20006;-84
2022/10/04 04:17:40;;;;;;;6.15;1.17;;;11.40;99.90;;;;;;6115719;23;20029;-84
2022/10/04 04:20:18;;;;;;;4.10;0.93;;;11.40;99.90;;;;;;6100571;23;20049;-83
2022/10/04 04:22:54;;;;;;;3.05;0.90;;;11.40;99.90;;;;;;6111525;23;20014;-84
2022/10/04 04:25:22;;;;;;;12.05;2.00;;;11.40;99.90;;;;;;6116434;23;20002;-84
2022/10/04 04:27:51;;;;;;;11.00;1.70;;;11.40;99.90;;;;;;6116623;23;20381;-85
2022/10/04 04:30:17;;;;;;;10.82;2.28;;;11.40;99.90;;;;;;6117409;23;20006;-84
2022/10/04 04:32:56;;;;;;;11.85;2.38;;;11.40;99.90;;;;;;6114472;23;20006;-84
2022/10/04 04:35:29;;;;;;;7.28;2.03;;;11.40;99.90;;;;;;6115283;23;20010;-84
2022/10/04 04:38:11;;;;;;;5.22;1.88;;;11.40;99.90;;;;;;6113041;23;20069;-84
2022/10/04 04:40:37;;;;;;;6.35;1.65;;;11.40;99.90;;;;;;6113384;23;20010;-84
2022/10/04 04:43:06;;;;;;;8.10;2.20;;;11.40;99.90;;;;;;6113965;23;20064;-84
2022/10/04 04:45:32;;;;;;;5.18;1.70;;;11.40;99.90;;;;;;6115087;23;20014;-86
2022/10/04 04:48:00;;;;;;;15.93;2.10;;;11.40;99.90;;;;;;6115973;23;20028;-86
2022/10/04 04:50:33;;;;;;;5.18;1.30;;;11.40;99.90;;;;;;6115937;23;20003;-86
2022/10/04 04:53:05;;;;;;;5.35;1.10;;;11.40;99.90;;;;;;6117192;23;20059;-85
2022/10/04 04:55:38;;;;;;;5.97;1.85;;;11.40;99.90;;;;;;6114885;23;20059;-85
2022/10/04 04:58:07;;;;;;;6.07;1.20;;;11.40;99.90;;;;;;6115211;23;20005;-85
2022/10/04 05:00:37;;;;;;;2.60;0.90;;;11.40;99.90;;;;;;6115837;23;20336;-85
2022/10/04 05:03:07;;;;;;;4.50;1.00;;;11.40;99.90;;;;;;6117630;23;20013;-85
2022/10/04 05:05:36;;;;;;;9.13;1.48;;;11.40;99.90;;;;;;6116916;23;20014;-85
2022/10/04 05:08:21;;;;;;;4.97;1.27;;;11.40;99.90;;;;;;6117358;23;20032;-85
2022/10/04 05:11:22;;;;;;;5.45;1.40;;;11.50;99.90;;;;;;6090851;23;20033;-85
2022/10/04 05:14:04;;;;;;;5.40;1.40;;;11.50;99.90;;;;;;6028084;23;20003;-86
2022/10/04 05:16:30;;;;;;;10.50;1.48;;;11.40;99.90;;;;;;6107650;23;20059;-85
2022/10/04 05:19:00;;;;;;;4.20;1.00;;;11.40;99.90;;;;;;6117638;23;20022;-85
2022/10/04 05:21:33;;;;;;;4.60;1.23;;;11.40;99.90;;;;;;6115623;23;20006;-85
2022/10/04 05:24:23;;;;;;;1.75;0.77;;;11.40;99.90;;;;;;6118731;23;20067;-83
2022/10/04 05:26:55;;;;;;;2.60;0.82;;;11.40;99.90;;;;;;6117579;23;20017;-85
2022/10/04 05:29:28;;;;;;;3.63;1.10;;;11.40;99.90;;;;;;6118506;23;20029;-85
2022/10/04 05:32:33;;;;;;;2.50;1.08;;;11.40;99.90;;;;;;6117707;23;20010;-85
2022/10/04 05:35:00;;;;;;;5.13;2.08;;;11.50;99.90;;;;;;6117451;23;20002;-86
2022/10/04 05:37:54;;;;;;;6.88;3.13;;;11.50;99.90;;;;;;6118055;23;20516;-85
2022/10/04 05:40:57;;;;;;;6.18;3.28;;;11.50;99.90;;;;;;6119243;23;19999;-85
2022/10/04 05:43:34;;;;;;;6.90;2.78;;;11.50;99.90;;;;;;6118205;23;20006;-85
2022/10/04 05:46:28;;;;;;;6.72;3.35;;;11.50;99.90;;;;;;6117153;23;20025;-85
2022/10/04 05:49:07;;;;;;;9.90;3.80;;;11.50;99.90;;;;;;6118657;23;19998;-85
2022/10/04 05:51:46;;;;;;;8.52;3.65;;;11.50;99.90;;;;;;6117299;23;20087;-86
2022/10/04 05:54:26;;;;;;;11.70;2.13;;;11.50;99.90;;;;;;6118604;23;20006;-85
2022/10/04 05:57:16;;;;;;;6.93;1.80;;;11.50;99.90;;;;;;6118048;23;20017;-85
2022/10/04 06:00:03;;;;;;;4.80;1.33;;;11.50;99.90;;;;;;6117272;23;20515;-85
2022/10/04 06:03:08;;;;;;;5.68;1.13;;;11.60;99.90;;;;;;6116975;23;20001;-85
2022/10/04 06:05:53;;;;;;;4.32;1.25;;;11.60;99.90;;;;;;6116240;23;20037;-85
2022/10/04 06:08:27;;;;;;;7.40;1.27;;;11.60;99.90;;;;;;6118462;23;19998;-85
2022/10/04 06:11:16;;;;;;;5.55;1.27;;;11.70;99.90;;;;;;6115815;23;20355;-85
2022/10/04 06:14:01;;;;;;;10.07;1.58;;;11.70;99.90;;;;;;6119038;23;20002;-85
2022/10/04 06:16:43;;;;;;;7.65;2.00;;;11.70;99.90;;;;;;6118046;23;20323;-85
2022/10/04 06:19:31;;;;;;;6.38;2.00;;;11.80;99.90;;;;;;6118723;22;20070;-85
2022/10/04 06:22:19;;;;;;;4.57;1.80;;;11.80;99.90;;;;;;6117850;23;19998;-85
2022/10/04 06:24:52;;;;;;;3.10;1.00;;;11.80;99.90;;;;;;6118836;23;20032;-85
2022/10/04 06:27:40;;;;;;;7.28;1.38;;;11.80;99.90;;;;;;6117850;23;20025;-85
2022/10/04 06:30:14;;;;;;;7.75;1.95;;;11.90;99.90;;;;;;6117614;23;20092;-85
2022/10/04 06:33:36;;;;;;;5.65;1.42;;;11.90;99.90;;;;;;6117937;23;20327;-84
2022/10/04 06:36:24;;;;;;;6.25;1.42;;;12.00;99.90;;;;;;6055847;23;20029;-86
2022/10/04 06:39:01;;;;;;;7.00;1.60;;;12.00;99.90;;;;;;6119153;23;20036;-84
2022/10/04 06:41:41;;;;;;;9.20;1.65;;;12.10;99.90;;;;;;6117831;23;20033;-85
2022/10/04 06:44:29;;;;;;;11.63;1.48;;;12.20;99.90;;;;;;6119085;23;20006;-85
2022/10/04 06:47:16;;;;;;;3.90;1.02;;;12.20;99.90;;;;;;6118221;23;20010;-85
2022/10/04 06:49:58;;;;;;;7.75;1.08;;;12.20;99.90;;;;;;6119007;23;20084;-85
2022/10/04 06:52:43;;;;;;;9.48;1.52;;;12.20;99.90;;;;;;6117833;23;20006;-85
2022/10/04 06:55:47;;;;;;;8.38;1.58;;;12.10;99.90;;;;;;6118433;23;20002;-85
2022/10/04 06:58:34;;;;;;;5.45;1.45;;;12.10;99.90;;;;;;6118374;23;20006;-85
2022/10/04 07:01:17;;;;;;;2.33;1.00;;;12.10;99.90;;;;;;6116579;23;20010;-85
2022/10/04 07:03:51;;;;;;;5.82;2.33;;;12.10;99.90;;;;;;6115670;23;20006;-85
2022/10/04 07:06:26;;;;;;;2.10;1.10;;;12.20;99.90;;;;;;6116002;23;20315;-86
2022/10/04 07:08:58;;;;;;;5.33;1.30;;;12.20;99.90;;;;;;6114949;23;20013;-84
2022/10/04 07:12:07;;;;;;;3.70;1.45;;;12.20;99.90;;;;;;6114111;23;20447;-85
2022/10/04 07:14:44;;;;;;;12.25;2.25;;;12.20;99.90;;;;;;6117442;23;20381;-85
2022/10/04 07:17:35;;;;;;;11.32;2.67;;;12.20;99.90;;;;;;6117141;23;20010;-86
2022/10/04 07:20:04;;;;;;;8.90;1.20;;;12.30;99.90;;;;;;6117438;23;20022;-86
2022/10/04 07:22:41;;;;;;;4.50;1.40;;;12.20;99.90;;;;;;6117225;23;20510;-86
2022/10/04 07:25:27;;;;;;;6.05;1.73;;;12.30;99.90;;;;;;6117043;23;20010;-85
2022/10/04 07:34:25;;;;;;;4.75;1.15;;;12.30;99.90;;;;;;6104918;23;20363;-85
2022/10/04 07:36:58;;;;;;;5.80;1.65;;;12.40;99.90;;;;;;6118169;23;20002;-85
2022/10/04 07:39:29;;;;;;;5.60;1.50;;;12.40;99.90;;;;;;6118660;23;20419;-85
2022/10/04 07:42:06;;;;;;;7.95;1.58;;;12.40;99.90;;;;;;6117982;23;20321;-85
2022/10/04 07:44:38;;;;;;;7.18;1.50;;;12.50;99.90;;;;;;6118480;23;20467;-85
2022/10/04 07:47:23;;;;;;;5.45;1.27;;;12.50;99.90;;;;;;6118024;23;20018;-85
2022/10/04 07:49:49;;;;;;;3.83;1.30;;;12.50;99.90;;;;;;6118787;23;20002;-85
2022/10/04 07:52:39;;;;;;;6.72;1.42;;;12.60;99.90;;;;;;6118035;23;20002;-85
2022/10/04 07:55:22;;;;;;;7.20;1.40;;;12.60;99.90;;;;;;6119163;23;19998;-85
2022/10/04 07:58:06;;;;;;;5.55;1.30;;;12.60;99.90;;;;;;6117967;23;20458;-85
2022/10/04 08:00:56;;;;;;;10.85;1.63;;;12.60;99.90;;;;;;6119051;23;20010;-85
2022/10/04 08:04:10;;;;;;;8.55;1.52;;;12.70;99.90;;;;;;6117923;23;20378;-84
2022/10/04 08:06:56;;;;;;;2.85;0.98;;;12.80;99.90;;;;;;6028353;23;20021;-85
2022/10/04 08:09:42;;;;;;;;;;;12.90;99.90;;;;;;6029854;23;20480;-85
2022/10/04 08:12:45;;;;;;;5.70;1.53;;;13.00;99.90;;;;;;6094799;23;19960;-84
2022/10/04 08:15:32;;;;;;;14.00;1.67;;;13.20;99.90;;;;;;6118511;23;20229;-84
2022/10/04 08:18:16;;;;;;;9.63;1.38;;;13.30;99.90;;;;;;6117675;23;20009;-85
2022/10/04 08:20:55;;;;;;;6.60;1.50;;;13.40;99.90;;;;;;6118247;23;20022;-85
2022/10/04 08:23:40;;;;;;;4.53;1.25;;;13.40;99.90;;;;;;6117771;23;20032;-84
2022/10/04 08:26:48;;;;;;;8.95;2.05;;;13.50;99.90;;;;;;6118405;23;20009;-84
2022/10/04 08:29:42;;;;;;;6.38;1.83;;;13.60;99.90;;;;;;6106337;23;20423;-84
2022/10/04 08:32:35;;;;;;;10.98;1.88;;;13.60;99.90;;;;;;6105470;23;20014;-83
2022/10/04 08:35:15;;;;;;;5.10;1.20;;;13.70;99.90;;;;;;6117231;23;20030;-84
2022/10/04 08:38:12;;;;;;;6.00;1.38;;;13.70;99.90;;;;;;6117368;23;20008;-84
2022/10/04 08:41:07;;;;;;;8.75;1.13;;;13.70;99.90;;;;;;6117179;23;20439;-84
2022/10/04 08:43:52;;;;;;;7.82;1.33;;;13.70;99.90;;;;;;6039018;23;20011;-84
2022/10/04 08:46:21;;;;;;;7.88;1.75;;;13.70;99.90;;;;;;6118061;23;20021;-82
2022/10/04 08:49:25;;;;;;;12.95;2.13;;;13.90;99.90;;;;;;6118917;23;20017;-84
2022/10/04 08:52:08;;;;;;;6.88;1.50;;;13.80;99.90;;;;;;6028127;23;20012;-84
2022/10/04 08:55:01;;;;;;;5.50;1.55;;;13.90;99.90;;;;;;6112853;23;20069;-85
2022/10/04 08:58:02;;;;;;;8.55;1.63;;;14.00;99.90;;;;;;6117709;23;20013;-84
2022/10/04 09:00:30;;;;;;;7.78;1.60;;;14.00;99.90;;;;;;6118916;23;20010;-83
2022/10/04 09:03:35;;;;;;;10.23;2.08;;;14.10;99.90;;;;;;6118711;23;20010;-84
2022/10/04 09:06:19;;;;;;;9.00;1.92;;;14.20;99.90;;;;;;6119213;23;20339;-84
2022/10/04 09:09:33;;;;;;;7.63;1.50;;;14.30;99.90;;;;;;6118796;23;20005;-86
2022/10/04 09:12:21;;;;;;;11.00;1.80;;;14.40;99.90;;;;;;6097483;23;19998;-86
2022/10/04 09:15:25;;;;;;;5.25;2.03;;;14.50;99.90;;;;;;6119637;23;20014;-85
2022/10/04 09:18:11;;;;;;;5.35;1.50;;;14.50;99.90;;;;;;6118975;23;20067;-85
2022/10/04 09:21:02;;;;;;;9.82;2.00;;;14.60;99.90;;;;;;6119126;23;20018;-84
2022/10/04 09:23:30;;;;;;;9.23;2.28;;;14.60;99.90;;;;;;6118617;23;20006;-84
2022/10/04 09:26:22;;;;;;;8.45;1.73;;;14.60;99.90;;;;;;6116802;23;20221;-84
2022/10/04 09:29:09;;;;;;;7.10;1.83;;;14.70;99.90;;;;;;6113967;23;20010;-84
2022/10/04 09:32:12;;;;;;;11.90;1.55;;;14.80;99.90;;;;;;6115058;23;20010;-85
2022/10/04 09:34:43;;;;;;;4.80;1.58;;;14.90;99.90;;;;;;6118712;23;20085;-85
2022/10/04 09:37:12;;;;;;;10.73;1.65;;;15.00;99.90;;;;;;6117546;23;20006;-85
2022/10/04 09:39:46;;;;;;;16.80;2.88;;;15.10;99.90;;;;;;6118537;23;20006;-83
2022/10/04 09:42:33;;;;;;;7.05;1.83;;;15.20;99.90;;;;;;6116723;23;20014;-84
2022/10/04 09:45:20;;;;;;;13.18;3.15;;;15.20;99.90;;;;;;6117056;23;20380;-84
2022/10/04 09:48:13;;;;;;;11.43;1.45;;;15.20;99.90;;;;;;6116721;23;20010;-84
2022/10/04 09:51:22;;;;;;;11.02;1.92;;;15.20;99.90;;;;;;6118608;23;20356;-84
2022/10/04 09:54:18;;;;;;;12.98;2.05;;;15.30;99.90;;;;;;6074551;23;20080;-84
2022/10/04 09:57:00;;;;;;;11.88;1.95;;;15.30;99.90;;;;;;6116618;23;20012;-83
2022/10/04 09:59:49;;;;;;;7.55;1.60;;;15.40;99.90;;;;;;6117906;23;20322;-84
2022/10/04 10:02:27;;;;;;;5.85;1.45;;;15.30;99.90;;;;;;6118122;23;20016;-82
2022/10/04 10:05:11;;;;;;;5.03;1.48;;;15.30;99.90;;;;;;6117171;23;20484;-84
2022/10/04 10:08:03;;;;;;;7.63;2.25;;;15.30;99.90;;;;;;6118106;23;20068;-84
2022/10/04 10:13:43;;;;;;;4.75;1.70;;;15.40;99.90;;;;;;6118098;23;20016;-84
2022/10/04 10:16:40;;;;;;;8.73;1.70;;;15.30;99.90;;;;;;6117553;23;20010;-84
2022/10/04 10:19:33;;;;;;;7.40;1.95;;;15.20;99.90;;;;;;6116855;22;20033;-84
2022/10/04 10:22:16;;;;;;;4.90;1.35;;;15.20;99.90;;;;;;6117847;23;20234;-84
2022/10/04 10:24:45;;;;;;;15.27;3.08;;;15.30;99.90;;;;;;6118582;23;20443;-83
2022/10/04 10:27:54;;;;;;;7.15;1.50;;;15.40;99.90;;;;;;6117988;23;20087;-83
2022/10/04 10:30:41;;;;;;;8.23;1.83;;;15.50;99.90;;;;;;6119108;23;20459;-85
2022/10/04 10:33:07;;;;;;;9.60;1.88;;;15.50;99.90;;;;;;6117752;23;20009;-83
2022/10/04 10:35:59;;;;;;;3.95;1.67;;;15.60;99.90;;;;;;6119042;23;20036;-83
2022/10/04 10:39:08;;;;;;;9.32;2.60;;;15.70;99.90;;;;;;6117842;23;20028;-83
2022/10/04 10:41:52;;;;;;;4.45;1.50;;;15.70;99.90;;;;;;6029324;23;20078;-84
2022/10/04 10:44:55;;;;;;;6.90;1.38;;;15.80;99.90;;;;;;6053235;23;20372;-85
2022/10/04 10:47:35;;;;;;;12.02;2.72;;;15.90;99.90;;;;;;6103135;23;20006;-85
2022/10/04 10:50:14;;;;;;;6.32;1.42;;;15.90;99.90;;;;;;6118718;23;20008;-85
2022/10/04 10:53:05;;;;;;;6.53;1.88;;;15.90;99.90;;;;;;6117702;23;20055;-86
2022/10/04 10:55:52;;;;;;;7.88;2.03;;;16.00;99.90;;;;;;6118869;23;20056;-84
2022/10/04 10:58:36;;;;;;;5.45;1.33;;;16.10;99.90;;;;;;6118540;23;20437;-84
2022/10/04 11:01:44;;;;;;;8.07;1.70;;;16.20;99.90;;;;;;6116272;23;20435;-83
2022/10/04 11:04:48;;;;;;;7.88;1.70;;;16.30;99.90;;;;;;6082454;23;20072;-85
2022/10/04 11:07:51;;;;;;;3.35;1.27;;;16.30;99.90;;;;;;6115619;23;20443;-83
2022/10/04 11:10:47;;;;;;;4.72;1.40;;;16.30;99.90;;;;;;6119202;23;20196;-84
2022/10/04 11:13:34;;;;;;;2.50;1.25;;;16.30;99.90;;;;;;6117726;23;20560;-84
2022/10/04 11:16:33;;;;;;;4.63;1.50;;;16.30;99.90;;;;;;6116853;23;20423;-85
2022/10/04 11:19:45;;;;;;;6.70;1.83;;;16.50;99.90;;;;;;6115723;22;20080;-84
2022/10/04 11:22:41;;;;;;;6.32;1.92;;;16.60;99.90;;;;;;6117498;23;20002;-85
2022/10/04 11:25:06;;;;;;;6.90;2.13;;;16.60;99.90;;;;;;6118641;23;20476;-85
2022/10/04 11:27:57;;;;;;;5.15;1.63;;;16.60;99.90;;;;;;6117656;23;20097;-83
2022/10/04 11:30:39;;;;;;;8.20;1.83;;;16.70;99.90;;;;;;6117788;23;20009;-81
2022/10/04 11:33:27;;;;;;;6.10;1.50;;;16.70;99.90;;;;;;6118013;23;20021;-83
2022/10/04 11:36:41;;;;;;;9.32;1.92;;;16.80;99.90;;;;;;6118857;23;20018;-82
2022/10/04 11:39:14;;;;;;;4.72;1.55;;;16.80;99.90;;;;;;6079368;23;20005;-83
2022/10/04 11:42:01;;;;;;;4.93;1.23;;;16.80;99.90;;;;;;6118851;23;20077;-84
2022/10/04 11:45:12;;;;;;;9.45;1.70;;;16.70;99.90;;;;;;6118479;23;20060;-84
2022/10/04 11:48:10;;;;;;;6.65;1.67;;;16.80;99.90;;;;;;6117372;23;20034;-82
2022/10/04 11:50:53;;;;;;;5.13;1.75;;;17.00;99.90;;;;;;6118883;23;20012;-83
2022/10/04 11:53:38;;;;;;;9.68;2.22;;;16.80;99.90;;;;;;6118174;23;20037;-83
2022/10/04 11:56:04;;;;;;;5.70;1.23;;;16.90;99.90;;;;;;6119093;23;20081;-83
2022/10/04 11:58:49;;;;;;;8.88;2.20;;;16.90;99.90;;;;;;6118002;23;20415;-81
2022/10/04 12:01:30;;;;;;;7.82;1.80;;;17.00;99.90;;;;;;6118594;23;20006;-83
2022/10/04 12:04:16;;;;;;;7.68;1.73;;;17.10;99.90;;;;;;6117893;23;20006;-83
2022/10/04 12:06:57;;;;;;;8.85;1.80;;;17.10;99.90;;;;;;6117869;23;20017;-83
2022/10/04 12:09:33;;;;;;;5.60;1.60;;;17.10;99.90;;;;;;6116571;23;20029;-83
2022/10/04 12:12:36;;;;;;;15.07;2.72;;;17.10;99.90;;;;;;6115807;23;20036;-82
2022/10/04 12:15:21;;;;;;;14.02;2.63;;;17.20;99.90;;;;;;6117331;23;20037;-84
2022/10/04 12:17:52;;;;;;;3.92;1.52;;;17.30;99.90;;;;;;6114555;23;20072;-85
2022/10/04 12:20:29;;;;;;;8.63;1.70;;;17.40;99.90;;;;;;6115685;22;20064;-84
2022/10/04 12:23:19;;;;;;;10.73;1.77;;;17.40;99.90;;;;;;6116476;23;19998;-84
2022/10/04 12:25:57;;;;;;;8.82;2.85;;;17.40;99.90;;;;;;6117062;23;20089;-83
2022/10/04 12:28:25;;;;;;;7.18;2.20;;;17.50;99.90;;;;;;6115599;23;20339;-87
2022/10/04 12:31:14;;;;;;;6.68;1.98;;;17.50;99.90;;;;;;6117553;23;20062;-85
2022/10/04 12:34:01;;;;;;;3.88;1.63;;;17.60;99.90;;;;;;6111058;23;20006;-84
2022/10/04 12:36:41;;;;;;;7.88;1.88;;;17.70;99.90;;;;;;6116455;23;20010;-84
2022/10/04 12:39:10;;;;;;;14.02;2.38;;;17.70;99.90;;;;;;6116484;23;20034;-82
2022/10/04 12:41:44;;;;;;;10.65;2.70;;;17.70;99.90;;;;;;6117305;23;20005;-84
2022/10/04 12:44:13;;;;;;;8.57;2.35;;;17.80;99.90;;;;;;6115529;23;20002;-83
2022/10/04 12:47:05;;;;;;;19.13;2.65;;;17.80;99.90;;;;;;6115381;23;20093;-84
2022/10/04 12:49:53;;;;;;;9.60;2.55;;;17.80;99.90;;;;;;6115878;23;20130;-85
2022/10/04 12:52:26;;;;;;;6.03;1.80;;;17.80;99.90;;;;;;6113922;23;20002;-85
2022/10/04 12:54:52;;;;;;;6.88;2.40;;;17.80;99.90;;;;;;6117400;23;20006;-87
2022/10/04 12:57:47;;;;;;;7.28;2.10;;;17.80;99.90;;;;;;6117125;23;20017;-86
2022/10/04 13:00:24;;;;;;;13.02;2.80;;;17.80;99.90;;;;;;6118496;23;20081;-87
2022/10/04 13:03:21;;;;;;;7.35;2.10;;;17.90;99.90;;;;;;6117372;23;20063;-86
2022/10/04 13:05:49;;;;;;;7.28;2.10;;;18.00;99.90;;;;;;6118184;23;20014;-90
2022/10/04 13:08:42;;;;;;;10.48;2.83;;;18.00;99.90;;;;;;6116539;23;20029;-92
2022/10/04 13:11:38;;;;;;;8.90;2.03;;;18.00;99.90;;;;;;6115808;23;20060;-86
2022/10/04 13:14:28;;;;;;;10.85;2.17;;;18.00;99.90;;;;;;6116725;23;20061;-86
2022/10/04 13:17:15;;;;;;;7.97;2.70;;;18.00;99.90;;;;;;6117926;23;20331;-88
2022/10/04 13:20:18;;;;;;;15.07;2.92;;;18.00;99.90;;;;;;6117315;22;20458;-88
2022/10/04 13:23:16;;;;;;;7.70;2.38;;;18.10;99.90;;;;;;6115795;23;20399;-86
2022/10/04 13:25:59;;;;;;;10.15;2.38;;;18.00;99.90;;;;;;6081328;23;20041;-87
2022/10/04 13:28:46;;;;;;;9.10;2.28;;;18.00;99.90;;;;;;6116162;23;20006;-87
2022/10/04 13:31:23;;;;;;;6.75;1.80;;;18.00;99.90;;;;;;6117914;23;20002;-88
2022/10/04 13:34:14;;;;;;;6.95;2.45;;;17.90;99.90;;;;;;6116420;23;20084;-88
2022/10/04 13:37:19;;;;;;;8.82;2.90;;;17.90;99.90;;;;;;6116004;23;20085;-88
2022/10/04 13:40:00;;;;;;;7.05;3.00;;;18.00;99.90;;;;;;6117119;23;20009;-87
2022/10/04 13:42:44;;;;;;;10.35;2.47;;;17.90;99.90;;;;;;6115978;23;20002;-88
2022/10/04 13:45:37;;;;;;;7.93;3.05;;;17.90;99.90;;;;;;6117012;23;20026;-87
2022/10/04 13:48:58;;;;;;;9.38;2.67;;;18.00;99.90;;;;;;6116748;23;20021;-93
2022/10/04 13:51:38;;;;;;;8.80;2.17;;;18.00;99.90;;;;;;6068049;23;20387;-88
2022/10/04 13:57:09;;;;;;;;;;;18.20;99.90;;;;;;6118100;23;20364;-88
2022/10/04 14:00:13;;;;;;;5.22;2.20;;;18.40;99.90;;;;;;6117813;23;19908;-88
2022/10/04 14:02:57;;;;;;;8.30;2.55;;;18.60;99.90;;;;;;6070826;23;20207;-87
2022/10/04 14:05:31;;;;;;;15.90;2.42;;;18.70;99.90;;;;;;6118435;23;20010;-88
2022/10/04 14:08:16;;;;;;;8.98;2.38;;;18.80;99.90;;;;;;6116707;23;20091;-89
2022/10/04 14:11:09;;;;;;;8.02;2.63;;;18.90;99.90;;;;;;6116029;23;20013;-88
2022/10/04 14:13:44;;;;;;;10.85;2.58;;;18.90;99.90;;;;;;6113145;23;20009;-86
2022/10/04 14:16:37;;;;;;;8.27;2.50;;;18.90;99.90;;;;;;6117724;23;20010;-88